ENRV weather

Reinsvoll Airfield
Reinsvoll, Oppland, Norway

Public forecast

Using degrees Celsius for public forecast. Weather courtesy of forecast.io.

METAR (pilot weather report)

Closest report is Oslo Gardermoen Airport, 32.8 nm (60.7 km) SSE. Retrieved 2019/05/27 12:20 UTC (24 minutes ago):

ENGM 271220Z 15010KT 9999 -SHRA FEW020CB SCT020 BKN035 08/05 Q0997 TEMPO SHRA

TAF (pilot weather forecast)

Closest forecast is Oslo Gardermoen Airport, 32.8 nm (60.7 km) SSE. Retrieved 2019/05/27 12:58 UTC (0 seconds ago):

TAF ENGM 271100Z 2712/2812 VRB05KT 9999 FEW020 BKN040 TEMPO 2712/2806 SHRA BKN012 SCT020CB BECMG 2801/2803 36010KT